createdAt,value
2023-03-05T00:02:13.628Z,1.10
2023-03-05T00:04:40.667Z,0.90
2023-03-05T00:07:09.865Z,3.00
2023-03-05T00:09:36.870Z,1.40
2023-03-05T00:12:04.369Z,1.20
2023-03-05T00:14:31.502Z,1.27
2023-03-05T00:16:58.615Z,1.48
2023-03-05T00:19:25.780Z,1.40
2023-03-05T00:21:53.045Z,1.75
2023-03-05T00:24:19.998Z,1.30
2023-03-05T00:26:47.532Z,1.30
2023-03-05T00:29:18.928Z,1.60
2023-03-05T00:31:46.447Z,1.27
2023-03-05T00:34:15.790Z,1.20
2023-03-05T00:36:44.760Z,1.50
2023-03-05T00:39:12.556Z,1.45
2023-03-05T00:41:39.811Z,1.02
2023-03-05T00:44:08.572Z,1.10
2023-03-05T00:46:35.908Z,1.35
2023-03-05T00:49:03.171Z,1.42
2023-03-05T00:51:30.311Z,1.05
2023-03-05T00:53:57.430Z,1.35
2023-03-05T00:56:24.658Z,1.05
2023-03-05T00:58:53.478Z,1.27
2023-03-05T01:01:20.658Z,1.08
2023-03-05T01:03:48.024Z,0.98
2023-03-05T01:06:19.113Z,1.25
2023-03-05T01:08:46.200Z,1.08
2023-03-05T01:11:14.398Z,1.58
2023-03-05T01:13:41.685Z,1.40
2023-03-05T01:16:09.045Z,1.55
2023-03-05T01:18:38.992Z,1.58
2023-03-05T01:21:06.680Z,1.25
2023-03-05T01:23:35.838Z,1.50
2023-03-05T01:26:03.940Z,1.15
2023-03-05T01:28:31.159Z,1.10
2023-03-05T01:30:58.476Z,1.75
2023-03-05T01:33:25.670Z,1.33
2023-03-05T01:35:52.762Z,1.40
2023-03-05T01:38:19.894Z,1.00
2023-03-05T01:40:46.825Z,1.23
2023-03-05T01:43:21.144Z,1.15
2023-03-05T01:46:13.159Z,1.00
2023-03-05T01:48:42.675Z,1.20
2023-03-05T01:51:09.806Z,1.10
2023-03-05T01:53:37.225Z,1.45
2023-03-05T01:56:05.061Z,1.30
2023-03-05T01:58:32.778Z,1.20
2023-03-05T02:01:00.279Z,1.20
2023-03-05T02:03:27.416Z,1.20
2023-03-05T02:05:54.412Z,1.17
2023-03-05T02:08:23.030Z,1.00
2023-03-05T02:10:56.915Z,1.00
2023-03-05T02:13:29.790Z,1.48
2023-03-05T02:16:00.247Z,1.35
2023-03-05T02:18:27.987Z,1.27
2023-03-05T02:20:57.957Z,1.50
2023-03-05T02:23:27.541Z,1.05
2023-03-05T02:25:54.597Z,0.85
2023-03-05T02:28:39.192Z,1.27
2023-03-05T02:31:13.081Z,1.40
2023-03-05T02:33:40.222Z,1.17
2023-03-05T02:36:08.316Z,0.98
2023-03-05T02:38:35.780Z,1.00
2023-03-05T02:41:03.053Z,1.35
2023-03-05T02:43:30.547Z,1.10
2023-03-05T02:45:57.578Z,1.10
2023-03-05T02:48:25.002Z,1.25
2023-03-05T02:50:52.555Z,1.40
2023-03-05T02:53:19.924Z,1.17
2023-03-05T02:55:48.331Z,1.42
2023-03-05T02:58:16.545Z,1.35
2023-03-05T03:00:44.724Z,1.20
2023-03-05T03:03:11.816Z,1.20
2023-03-05T03:05:39.027Z,0.85
2023-03-05T03:08:06.273Z,1.13
2023-03-05T03:10:34.254Z,1.20
2023-03-05T03:13:01.293Z,1.30
2023-03-05T03:15:28.403Z,1.20
2023-03-05T03:17:55.815Z,1.10
2023-03-05T03:20:23.647Z,1.20
2023-03-05T03:22:53.694Z,1.10
2023-03-05T03:25:23.193Z,1.10
2023-03-05T03:27:52.694Z,1.17
2023-03-05T03:30:20.029Z,1.30
2023-03-05T03:32:47.100Z,1.40
2023-03-05T03:35:14.440Z,1.13
2023-03-05T03:37:41.449Z,1.17
2023-03-05T03:40:09.221Z,1.40
2023-03-05T03:42:36.502Z,1.20
2023-03-05T03:45:04.041Z,1.20
2023-03-05T03:47:31.537Z,1.23
2023-03-05T03:49:59.306Z,1.45
2023-03-05T03:52:26.958Z,1.52
2023-03-05T03:54:56.123Z,1.80
2023-03-05T03:57:23.125Z,1.60
2023-03-05T03:59:51.068Z,1.70
2023-03-05T04:02:18.655Z,1.60
2023-03-05T04:04:46.073Z,1.60
2023-03-05T04:07:13.284Z,1.20
2023-03-05T04:09:40.705Z,1.20
2023-03-05T04:12:08.021Z,1.15
2023-03-05T04:14:35.402Z,0.50
2023-03-05T04:17:02.793Z,0.85
2023-03-05T04:19:31.048Z,0.75
2023-03-05T04:21:59.186Z,0.63
2023-03-05T04:24:26.672Z,0.55
2023-03-05T04:26:53.583Z,0.80
2023-03-05T04:29:20.520Z,0.30
2023-03-05T04:31:47.537Z,0.45
2023-03-05T04:34:14.832Z,0.57
2023-03-05T04:36:42.086Z,0.73
2023-03-05T04:39:09.093Z,0.47
2023-03-05T04:41:36.019Z,0.65
2023-03-05T04:44:03.641Z,0.63
2023-03-05T04:46:30.943Z,0.30
2023-03-05T04:48:58.638Z,0.50
2023-03-05T04:51:26.042Z,0.70
2023-03-05T04:53:53.038Z,0.57
2023-03-05T04:56:20.029Z,0.75
2023-03-05T04:58:47.620Z,0.90
2023-03-05T05:01:14.741Z,0.50
2023-03-05T05:03:41.701Z,0.77
2023-03-05T05:06:08.682Z,1.00
2023-03-05T05:08:37.095Z,0.90
2023-03-05T05:11:06.448Z,0.80
2023-03-05T05:13:34.462Z,0.80
2023-03-05T05:16:01.697Z,0.80
2023-03-05T05:18:28.825Z,0.85
2023-03-05T05:20:55.794Z,0.90
2023-03-05T05:23:22.938Z,0.75
2023-03-05T05:26:00.342Z,0.75
2023-03-05T05:28:28.033Z,0.43
2023-03-05T05:30:55.683Z,1.00
2023-03-05T05:33:23.399Z,0.75
2023-03-05T05:35:51.042Z,0.90
2023-03-05T05:38:19.046Z,0.85
2023-03-05T05:40:46.013Z,1.10
2023-03-05T05:43:13.046Z,1.10
2023-03-05T05:45:40.152Z,1.20
2023-03-05T05:48:07.630Z,0.93
2023-03-05T05:50:34.689Z,1.27
2023-03-05T05:53:01.981Z,1.40
2023-03-05T05:55:28.990Z,1.70
2023-03-05T05:57:56.341Z,1.70
2023-03-05T06:00:23.521Z,3.70
2023-03-05T06:02:50.506Z,2.20
2023-03-05T06:05:17.636Z,2.05
2023-03-05T06:07:44.760Z,1.80
2023-03-05T06:10:11.909Z,2.25
2023-03-05T06:12:39.313Z,2.88
2023-03-05T06:15:07.215Z,2.58
2023-03-05T06:17:34.267Z,2.13
2023-03-05T06:20:01.735Z,2.40
2023-03-05T06:22:28.868Z,2.90
2023-03-05T06:24:56.517Z,3.50
2023-03-05T06:27:23.591Z,3.33
2023-03-05T06:29:54.037Z,2.00
2023-03-05T06:32:21.185Z,2.00
2023-03-05T06:34:48.494Z,2.10
2023-03-05T06:37:15.755Z,1.83
2023-03-05T06:39:42.980Z,1.42
2023-03-05T06:42:10.655Z,2.85
2023-03-05T06:44:41.464Z,1.20
2023-03-05T06:47:10.978Z,1.20
2023-03-05T06:49:39.395Z,1.48
2023-03-05T06:52:11.508Z,1.55
2023-03-05T06:54:38.531Z,1.45
2023-03-05T06:57:05.553Z,0.98
2023-03-05T06:59:32.631Z,1.30
2023-03-05T07:01:59.755Z,1.20
2023-03-05T07:04:26.811Z,1.30
2023-03-05T07:06:53.931Z,0.82
2023-03-05T07:09:20.998Z,1.42
2023-03-05T07:11:48.013Z,1.10
2023-03-05T07:14:15.566Z,0.90
2023-03-05T07:16:42.822Z,0.90
2023-03-05T07:19:11.820Z,0.80
2023-03-05T07:21:40.045Z,0.75
2023-03-05T07:24:08.402Z,0.73
2023-03-05T07:26:35.516Z,1.23
2023-03-05T07:29:03.921Z,2.10
2023-03-05T07:31:32.433Z,6.55
2023-03-05T07:34:01.934Z,30.25
2023-03-05T07:36:30.933Z,47.72
2023-03-05T07:38:58.170Z,14.80
2023-03-05T07:41:25.584Z,26.05
2023-03-05T07:43:55.830Z,121.60
2023-03-05T07:46:27.332Z,44.88
2023-03-05T07:48:55.238Z,13.07
2023-03-05T07:51:23.394Z,1.73
2023-03-05T07:53:52.118Z,2.67
2023-03-05T07:56:37.361Z,1.90
2023-03-05T07:59:11.182Z,0.70
2023-03-05T08:01:38.760Z,1.50
2023-03-05T08:04:06.992Z,1.05
2023-03-05T08:06:34.279Z,0.80
2023-03-05T08:09:01.755Z,0.68
2023-03-05T08:11:29.080Z,0.77
2023-03-05T08:13:59.738Z,3.72
2023-03-05T08:16:27.303Z,1.73
2023-03-05T08:18:57.727Z,0.57
2023-03-05T08:21:29.522Z,0.90
2023-03-05T08:23:57.659Z,0.40
2023-03-05T08:26:26.874Z,0.38
2023-03-05T08:28:54.076Z,0.47
2023-03-05T08:31:23.515Z,0.50
2023-03-05T08:33:52.303Z,0.30
2023-03-05T08:36:19.525Z,0.47
2023-03-05T08:38:48.513Z,0.28
2023-03-05T08:41:17.151Z,0.52
2023-03-05T08:43:44.800Z,0.30
2023-03-05T08:46:13.434Z,0.40
2023-03-05T08:48:41.040Z,0.45
2023-03-05T08:51:10.037Z,0.50
2023-03-05T08:53:37.149Z,0.50
2023-03-05T08:56:04.445Z,0.75
2023-03-05T08:58:31.797Z,0.73
2023-03-05T09:00:58.858Z,0.77
2023-03-05T09:03:26.276Z,1.15
2023-03-05T09:05:53.586Z,0.60
2023-03-05T09:08:21.266Z,0.52
2023-03-05T09:10:48.227Z,0.65
2023-03-05T09:13:15.326Z,0.73
2023-03-05T09:15:42.378Z,0.73
2023-03-05T09:18:09.764Z,0.80
2023-03-05T09:20:37.444Z,0.82
2023-03-05T09:23:05.084Z,0.55
2023-03-05T09:25:32.140Z,0.70
2023-03-05T09:27:59.109Z,0.50
2023-03-05T09:30:26.176Z,0.52
2023-03-05T09:32:53.493Z,0.70
2023-03-05T09:35:20.801Z,0.70
2023-03-05T09:37:48.149Z,0.60
2023-03-05T09:40:19.781Z,0.70
2023-03-05T09:43:23.869Z,0.80
2023-03-05T09:46:00.013Z,0.70
2023-03-05T09:48:39.376Z,0.65
2023-03-05T09:51:16.878Z,0.60
2023-03-05T09:53:50.768Z,0.70
2023-03-05T09:56:26.635Z,0.88
2023-03-05T09:58:57.961Z,1.88
2023-03-05T10:01:42.244Z,0.88
2023-03-05T10:04:09.332Z,0.77
2023-03-05T10:06:44.144Z,0.63
2023-03-05T10:09:11.248Z,0.90
2023-03-05T10:11:49.608Z,0.85
2023-03-05T10:14:28.059Z,1.05
2023-03-05T10:17:19.488Z,1.15
2023-03-05T10:20:16.203Z,1.00
2023-03-05T10:23:13.423Z,1.17
2023-03-05T10:26:11.146Z,0.55
2023-03-05T10:28:55.275Z,0.73
2023-03-05T10:32:21.147Z,0.68
2023-03-05T10:35:26.366Z,1.00
2023-03-05T10:38:05.297Z,0.65
2023-03-05T10:40:48.752Z,0.63
2023-03-05T10:43:35.132Z,0.70
2023-03-05T10:46:04.167Z,1.15
2023-03-05T10:48:42.942Z,1.00
2023-03-05T10:51:19.316Z,0.60
2023-03-05T10:53:52.271Z,0.70
2023-03-05T10:56:22.993Z,1.02
2023-03-05T10:58:52.161Z,0.63
2023-03-05T11:01:23.724Z,1.13
2023-03-05T11:04:05.682Z,0.68
2023-03-05T11:06:43.309Z,0.93
2023-03-05T11:09:29.277Z,1.00
2023-03-05T11:12:08.889Z,1.10
2023-03-05T11:14:38.904Z,1.00
2023-03-05T11:17:27.933Z,0.80
2023-03-05T11:19:57.131Z,0.75
2023-03-05T11:22:25.531Z,1.00
2023-03-05T11:25:18.926Z,0.90
2023-03-05T11:27:52.449Z,1.13
2023-03-05T11:30:31.962Z,0.82
2023-03-05T11:33:22.834Z,1.30
2023-03-05T11:35:51.770Z,1.48
2023-03-05T11:38:27.928Z,1.20
2023-03-05T11:40:57.297Z,0.93
2023-03-05T11:43:26.875Z,1.40
2023-03-05T11:45:59.735Z,1.35
2023-03-05T11:48:37.619Z,1.33
2023-03-05T11:51:33.011Z,1.35
2023-03-05T11:54:06.118Z,1.58
2023-03-05T11:56:42.063Z,1.83
2023-03-05T11:59:18.300Z,1.90
2023-03-05T12:01:48.649Z,2.20
2023-03-05T12:04:17.676Z,1.45
2023-03-05T12:06:47.115Z,1.60
2023-03-05T12:09:20.042Z,1.98
2023-03-05T12:11:50.374Z,2.35
2023-03-05T12:14:46.202Z,2.10
2023-03-05T12:17:28.015Z,3.60
2023-03-05T12:20:27.891Z,3.78
2023-03-05T12:22:56.752Z,4.75
2023-03-05T12:25:50.088Z,3.92
2023-03-05T12:28:34.048Z,3.72
2023-03-05T12:31:03.868Z,2.92
2023-03-05T12:33:44.195Z,2.85
2023-03-05T12:36:23.545Z,2.60
2023-03-05T12:38:57.871Z,2.40
2023-03-05T12:41:26.927Z,3.00
2023-03-05T12:44:07.294Z,3.63
2023-03-05T12:46:35.840Z,4.28
2023-03-05T12:49:18.205Z,4.03
2023-03-05T12:51:48.123Z,4.07
2023-03-05T12:54:39.656Z,4.88
2023-03-05T12:57:24.786Z,4.53
2023-03-05T13:00:14.070Z,3.88
2023-03-05T13:02:46.553Z,4.45
2023-03-05T13:05:31.655Z,4.60
2023-03-05T13:08:11.017Z,4.33
2023-03-05T13:10:38.375Z,5.25
2023-03-05T13:13:05.508Z,5.38
2023-03-05T13:15:33.610Z,4.63
2023-03-05T13:18:03.656Z,4.20
2023-03-05T13:20:37.710Z,3.92
2023-03-05T13:23:05.747Z,3.90
2023-03-05T13:25:32.738Z,3.92
2023-03-05T13:28:12.262Z,4.55
2023-03-05T13:30:39.811Z,4.68
2023-03-05T13:33:14.755Z,4.25
2023-03-05T13:35:46.843Z,4.13
2023-03-05T13:38:36.096Z,3.88
2023-03-05T13:41:24.260Z,4.47
2023-03-05T13:43:59.951Z,4.15
2023-03-05T13:46:39.037Z,4.05
2023-03-05T13:49:27.078Z,4.13
2023-03-05T13:51:57.239Z,4.15
2023-03-05T13:54:27.236Z,4.65
2023-03-05T13:57:01.894Z,3.97
2023-03-05T13:59:31.938Z,3.70
2023-03-05T14:02:01.533Z,3.83
2023-03-05T14:04:37.569Z,4.43
2023-03-05T14:07:37.985Z,4.60
2023-03-05T14:10:25.181Z,4.80
2023-03-05T14:12:52.305Z,4.80
2023-03-05T14:15:35.235Z,5.18
2023-03-05T14:18:12.777Z,5.15
2023-03-05T14:21:07.423Z,5.88
2023-03-05T14:23:34.557Z,5.28
2023-03-05T14:26:30.907Z,5.03
2023-03-05T14:29:04.521Z,4.40
2023-03-05T14:31:54.981Z,4.93
2023-03-05T14:34:25.139Z,4.88
2023-03-05T14:36:54.739Z,5.93
2023-03-05T14:39:28.842Z,5.88
2023-03-05T14:41:56.011Z,5.65
2023-03-05T14:44:25.632Z,5.43
2023-03-05T14:46:52.554Z,5.88
2023-03-05T14:49:19.548Z,5.63
2023-03-05T14:51:47.132Z,5.57
2023-03-05T14:54:23.965Z,5.45
2023-03-05T14:56:51.043Z,6.25
2023-03-05T14:59:19.593Z,5.90
2023-03-05T15:01:46.665Z,5.30
2023-03-05T15:04:18.688Z,6.00
2023-03-05T15:06:50.804Z,6.03
2023-03-05T15:09:19.892Z,6.68
2023-03-05T15:11:47.592Z,6.55
2023-03-05T15:14:14.672Z,6.60
2023-03-05T15:16:44.217Z,7.65
2023-03-05T15:19:14.603Z,7.43
2023-03-05T15:21:41.825Z,7.88
2023-03-05T15:24:11.304Z,7.90
2023-03-05T15:26:39.145Z,7.20
2023-03-05T15:29:06.165Z,7.57
2023-03-05T15:31:38.815Z,7.85
2023-03-05T15:34:06.419Z,8.88
2023-03-05T15:36:33.855Z,7.40
2023-03-05T15:39:01.048Z,8.23
2023-03-05T15:41:28.097Z,8.18
2023-03-05T15:43:55.067Z,7.82
2023-03-05T15:46:22.165Z,7.43
2023-03-05T15:48:50.398Z,6.53
2023-03-05T15:51:18.419Z,6.80
2023-03-05T15:53:46.462Z,7.63
2023-03-05T15:56:18.047Z,7.43
2023-03-05T15:58:45.667Z,7.00
2023-03-05T16:01:13.434Z,7.20
2023-03-05T16:03:40.478Z,6.18
2023-03-05T16:06:09.415Z,6.75
2023-03-05T16:08:36.905Z,6.28
2023-03-05T16:11:04.522Z,5.85
2023-03-05T16:13:32.836Z,6.70
2023-03-05T16:16:00.743Z,6.45
2023-03-05T16:18:30.026Z,6.18
2023-03-05T16:20:57.625Z,6.90
2023-03-05T16:23:24.672Z,6.90
2023-03-05T16:25:52.014Z,7.75
2023-03-05T16:28:19.434Z,9.00
2023-03-05T16:30:56.034Z,9.75
2023-03-05T16:33:25.085Z,12.48
2023-03-05T16:36:21.243Z,8.63
2023-03-05T16:41:17.760Z,9.07
2023-03-05T16:43:45.544Z,8.88
2023-03-05T16:46:14.914Z,8.13
2023-03-05T16:48:45.191Z,8.55
2023-03-05T16:51:12.928Z,8.98
2023-03-05T16:53:40.740Z,8.63
2023-03-05T16:56:09.504Z,9.25
2023-03-05T16:58:38.945Z,9.77
2023-03-05T17:01:18.131Z,8.98
2023-03-05T17:03:48.844Z,9.15
2023-03-05T17:06:22.367Z,7.85
2023-03-05T17:08:50.344Z,7.40
2023-03-05T17:11:17.423Z,8.32
2023-03-05T17:13:48.195Z,7.93
2023-03-05T17:16:18.126Z,8.15
2023-03-05T17:18:45.341Z,8.57
2023-03-05T17:21:12.485Z,8.68
2023-03-05T17:23:40.062Z,8.05
2023-03-05T17:26:12.997Z,8.55
2023-03-05T17:28:40.662Z,9.18
2023-03-05T17:31:08.144Z,9.10
2023-03-05T17:33:35.889Z,9.20
2023-03-05T17:36:03.676Z,9.70
2023-03-05T17:38:31.202Z,9.93
2023-03-05T17:40:58.355Z,9.65
2023-03-05T17:43:25.530Z,11.30
2023-03-05T17:45:52.668Z,10.23
2023-03-05T17:48:19.798Z,11.93
2023-03-05T17:50:46.919Z,12.85
2023-03-05T17:53:14.301Z,12.73
2023-03-05T17:55:41.301Z,12.63
2023-03-05T17:58:08.991Z,13.77
2023-03-05T18:00:36.373Z,13.25
2023-03-05T18:03:04.197Z,12.18
2023-03-05T18:05:31.898Z,12.52
2023-03-05T18:08:00.204Z,11.00
2023-03-05T18:10:28.484Z,11.52
2023-03-05T18:12:58.687Z,11.63
2023-03-05T18:15:27.767Z,10.50
2023-03-05T18:17:55.255Z,10.85
2023-03-05T18:20:32.778Z,11.05
2023-03-05T18:23:01.661Z,12.43
2023-03-05T18:25:32.991Z,13.10
2023-03-05T18:28:01.700Z,11.68
2023-03-05T18:30:30.178Z,13.30
2023-03-05T18:32:57.709Z,13.68
2023-03-05T18:35:24.830Z,13.65
2023-03-05T18:37:52.162Z,12.90
2023-03-05T18:40:22.554Z,12.80
2023-03-05T18:42:50.193Z,13.40
2023-03-05T18:45:19.621Z,12.85
2023-03-05T18:47:48.103Z,13.55
2023-03-05T18:50:18.887Z,13.60
2023-03-05T18:52:46.500Z,12.60
2023-03-05T18:55:18.787Z,13.27
2023-03-05T18:57:46.295Z,12.90
2023-03-05T19:00:23.334Z,13.52
2023-03-05T19:02:53.312Z,12.90
2023-03-05T19:05:20.874Z,12.40
2023-03-05T19:07:48.867Z,13.20
2023-03-05T19:10:19.818Z,12.35
2023-03-05T19:13:43.057Z,11.80
2023-03-05T19:16:14.686Z,11.77
2023-03-05T19:19:27.122Z,12.75
2023-03-05T19:21:59.947Z,11.48
2023-03-05T19:24:31.465Z,12.00
2023-03-05T19:27:01.100Z,11.70
2023-03-05T19:29:33.231Z,11.48
2023-03-05T19:32:00.445Z,11.63
2023-03-05T19:34:27.579Z,12.15
2023-03-05T19:36:54.947Z,11.52
2023-03-05T19:39:23.150Z,11.52
2023-03-05T19:41:50.311Z,12.18
2023-03-05T19:44:17.400Z,11.00
2023-03-05T19:46:44.581Z,11.98
2023-03-05T19:49:11.596Z,11.93
2023-03-05T19:51:40.769Z,11.25
2023-03-05T19:54:08.026Z,9.73
2023-03-05T19:56:40.342Z,9.45
2023-03-05T19:59:07.751Z,8.38
2023-03-05T20:01:35.172Z,8.95
2023-03-05T20:04:04.857Z,10.77
2023-03-05T20:06:33.055Z,9.70
2023-03-05T20:09:00.554Z,9.55
2023-03-05T20:11:28.343Z,9.40
2023-03-05T20:13:56.126Z,8.70
2023-03-05T20:16:29.849Z,8.48
2023-03-05T20:18:58.713Z,8.65
2023-03-05T20:21:29.485Z,9.52
2023-03-05T20:24:09.190Z,8.93
2023-03-05T20:26:39.189Z,9.10
2023-03-05T20:29:07.032Z,8.35
2023-03-05T20:31:37.394Z,8.10
2023-03-05T20:34:11.655Z,8.18
2023-03-05T20:36:39.091Z,8.50
2023-03-05T20:39:07.270Z,9.00
2023-03-05T20:41:36.393Z,8.27
2023-03-05T20:44:04.057Z,9.05
2023-03-05T20:46:33.976Z,8.85
2023-03-05T20:49:03.668Z,8.88
2023-03-05T20:51:35.179Z,8.25
2023-03-05T20:54:06.297Z,8.50
2023-03-05T20:56:35.279Z,8.68
2023-03-05T20:59:05.003Z,8.35
2023-03-05T21:01:34.425Z,9.07
2023-03-05T21:04:02.651Z,7.90
2023-03-05T21:06:31.050Z,8.60
2023-03-05T21:08:58.438Z,8.25
2023-03-05T21:11:25.713Z,8.45
2023-03-05T21:13:52.726Z,9.00
2023-03-05T21:16:23.245Z,8.27
2023-03-05T21:18:51.521Z,7.75
2023-03-05T21:21:18.934Z,8.80
2023-03-05T21:23:47.260Z,9.40
2023-03-05T21:26:14.876Z,9.32
2023-03-05T21:28:42.372Z,8.90
2023-03-05T21:31:15.315Z,8.60
2023-03-05T21:33:42.482Z,8.20
2023-03-05T21:36:10.343Z,8.00
2023-03-05T21:38:37.815Z,8.50
2023-03-05T21:41:05.855Z,9.00
2023-03-05T21:43:33.103Z,9.50
2023-03-05T21:46:03.431Z,9.30
2023-03-05T21:48:31.601Z,10.00
2023-03-05T21:50:59.383Z,9.57
2023-03-05T21:53:26.856Z,9.35
2023-03-05T21:56:31.348Z,10.40
2023-03-05T21:58:58.578Z,9.77
2023-03-05T22:01:25.563Z,11.02
2023-03-05T22:03:53.986Z,10.55
2023-03-05T22:06:21.548Z,10.15
2023-03-05T22:08:48.926Z,10.95
2023-03-05T22:11:17.962Z,10.52
2023-03-05T22:13:45.349Z,10.63
2023-03-05T22:16:20.060Z,10.85
2023-03-05T22:18:47.159Z,13.35
2023-03-05T22:21:26.977Z,10.40
2023-03-05T22:23:57.499Z,10.27
2023-03-05T22:26:27.005Z,8.57
2023-03-05T22:28:53.962Z,9.52
2023-03-05T22:31:26.541Z,9.98
2023-03-05T22:33:53.951Z,9.73
2023-03-05T22:36:21.001Z,9.35
2023-03-05T22:38:48.241Z,8.90
2023-03-05T22:41:19.844Z,8.85
2023-03-05T22:43:48.543Z,8.55
2023-03-05T22:46:18.981Z,7.82
2023-03-05T22:48:46.603Z,7.20
2023-03-05T22:51:14.911Z,7.47
2023-03-05T22:53:42.996Z,7.65
2023-03-05T22:56:20.425Z,8.27
2023-03-05T22:58:47.846Z,7.88
2023-03-05T23:01:22.665Z,7.85
2023-03-05T23:05:00.517Z,7.57
2023-03-05T23:07:31.473Z,7.38
2023-03-05T23:10:05.858Z,7.63
2023-03-05T23:12:35.310Z,6.97
2023-03-05T23:15:05.653Z,7.25
2023-03-05T23:17:32.734Z,7.45
2023-03-05T23:19:59.748Z,7.32
2023-03-05T23:22:26.897Z,7.93
2023-03-05T23:24:54.102Z,8.23
2023-03-05T23:27:21.208Z,8.75
2023-03-05T23:30:22.795Z,8.07
2023-03-05T23:32:56.173Z,8.55
2023-03-05T23:35:28.898Z,9.60
2023-03-05T23:37:58.071Z,9.60
2023-03-05T23:40:31.229Z,11.73
2023-03-05T23:42:58.379Z,11.98
2023-03-05T23:45:26.533Z,12.38
2023-03-05T23:47:53.589Z,13.40
2023-03-05T23:50:23.432Z,15.52
2023-03-05T23:52:51.275Z,16.13
2023-03-05T23:55:24.504Z,15.45
2023-03-05T23:57:52.205Z,18.70
